createdAt,value
2023-03-26T00:02:23.504Z,13.43
2023-03-26T00:04:51.208Z,12.40
2023-03-26T00:07:17.915Z,10.30
2023-03-26T00:09:44.402Z,10.33
2023-03-26T00:12:11.348Z,12.57
2023-03-26T00:14:38.618Z,9.27
2023-03-26T00:17:05.434Z,11.93
2023-03-26T00:19:32.382Z,9.00
2023-03-26T00:21:58.969Z,10.60
2023-03-26T00:24:29.673Z,11.50
2023-03-26T00:26:56.194Z,7.83
2023-03-26T00:29:28.025Z,7.67
2023-03-26T00:31:54.758Z,8.03
2023-03-26T00:34:23.037Z,7.80
2023-03-26T00:36:54.373Z,8.10
2023-03-26T00:39:21.893Z,6.20
2023-03-26T00:41:48.486Z,5.53
2023-03-26T00:44:15.005Z,6.70
2023-03-26T00:46:42.776Z,6.03
2023-03-26T00:49:11.085Z,7.03
2023-03-26T00:51:39.379Z,5.40
2023-03-26T00:54:07.816Z,3.87
2023-03-26T00:56:34.859Z,2.30
2023-03-26T00:59:01.460Z,5.17
2023-03-26T01:01:29.117Z,6.40
2023-03-26T01:04:08.249Z,3.13
2023-03-26T01:06:37.333Z,5.07
2023-03-26T01:09:14.757Z,3.60
2023-03-26T01:11:41.524Z,3.50
2023-03-26T01:14:12.829Z,4.67
2023-03-26T01:16:41.713Z,4.20
2023-03-26T01:19:13.045Z,3.73
2023-03-26T01:21:39.866Z,5.73
2023-03-26T01:24:07.934Z,3.73
2023-03-26T01:26:40.711Z,5.53
2023-03-26T01:29:08.796Z,3.00
2023-03-26T01:31:39.706Z,4.87
2023-03-26T01:34:16.345Z,3.03
2023-03-26T01:36:47.931Z,3.87
2023-03-26T01:39:25.357Z,4.77
2023-03-26T01:41:54.719Z,5.33
2023-03-26T01:44:24.213Z,5.00
2023-03-26T01:46:52.722Z,3.73
2023-03-26T01:49:19.977Z,6.53
2023-03-26T01:51:47.707Z,4.60
2023-03-26T01:54:18.348Z,6.03
2023-03-26T01:56:50.871Z,8.83
2023-03-26T01:59:27.228Z,8.43
2023-03-26T02:02:01.314Z,5.60
2023-03-26T02:04:40.560Z,3.50
2023-03-26T02:07:09.467Z,6.20
2023-03-26T02:09:40.747Z,5.90
2023-03-26T02:12:08.261Z,6.13
2023-03-26T02:14:35.921Z,8.03
2023-03-26T02:17:02.597Z,4.87
2023-03-26T02:19:29.926Z,6.33
2023-03-26T02:21:59.872Z,5.50
2023-03-26T02:24:26.726Z,8.47
2023-03-26T02:26:53.280Z,6.40
2023-03-26T02:29:20.633Z,6.70
2023-03-26T02:31:50.779Z,6.37
2023-03-26T02:34:17.449Z,5.57
2023-03-26T02:36:44.130Z,5.27
2023-03-26T02:39:11.274Z,5.00
2023-03-26T02:41:38.212Z,6.73
2023-03-26T02:44:05.813Z,3.80
2023-03-26T02:46:32.984Z,9.60
2023-03-26T02:48:59.524Z,7.70
2023-03-26T02:51:27.344Z,10.57
2023-03-26T02:53:54.839Z,5.63
2023-03-26T02:56:21.733Z,5.33
2023-03-26T02:58:48.435Z,5.47
2023-03-26T03:01:18.354Z,5.20
2023-03-26T03:03:47.307Z,4.83
2023-03-26T03:06:20.110Z,6.30
2023-03-26T03:08:46.668Z,5.43
2023-03-26T03:11:14.983Z,11.00
2023-03-26T03:13:41.605Z,8.77
2023-03-26T03:16:08.458Z,7.10
2023-03-26T03:18:35.713Z,4.10
2023-03-26T03:21:03.062Z,7.83
2023-03-26T03:23:29.611Z,6.47
2023-03-26T03:25:57.514Z,7.23
2023-03-26T03:28:24.643Z,6.07
2023-03-26T03:30:54.127Z,5.57
2023-03-26T03:33:21.467Z,8.50
2023-03-26T03:35:49.656Z,10.30
2023-03-26T03:38:19.350Z,5.67
2023-03-26T03:40:46.192Z,5.00
2023-03-26T03:43:12.690Z,5.27
2023-03-26T03:45:39.311Z,4.10
2023-03-26T03:48:06.881Z,4.87
2023-03-26T03:50:35.646Z,7.67
2023-03-26T03:53:02.997Z,6.87
2023-03-26T03:55:30.078Z,8.73
2023-03-26T03:57:58.394Z,9.73
2023-03-26T04:00:25.466Z,14.73
2023-03-26T04:02:54.607Z,6.20
2023-03-26T04:05:21.575Z,7.60
2023-03-26T04:07:48.237Z,10.93
2023-03-26T04:10:16.097Z,8.33
2023-03-26T04:12:42.774Z,9.20
2023-03-26T04:15:10.214Z,13.50
2023-03-26T04:17:56.716Z,12.90
2023-03-26T04:20:47.268Z,9.93
2023-03-26T04:23:32.502Z,11.27
2023-03-26T04:26:04.248Z,12.67
2023-03-26T04:28:48.938Z,14.57
2023-03-26T04:31:24.430Z,9.10
2023-03-26T04:33:55.369Z,13.97
2023-03-26T04:36:29.177Z,10.67
2023-03-26T04:38:56.001Z,14.53
2023-03-26T04:41:22.601Z,12.03
2023-03-26T04:43:50.792Z,10.70
2023-03-26T04:46:23.598Z,11.97
2023-03-26T04:48:51.096Z,10.90
2023-03-26T04:51:18.664Z,14.07
2023-03-26T04:53:51.702Z,18.83
2023-03-26T04:56:31.459Z,14.27
2023-03-26T04:58:59.906Z,11.03
2023-03-26T05:01:28.436Z,12.33
2023-03-26T05:03:55.757Z,14.57
2023-03-26T05:06:22.412Z,11.43
2023-03-26T05:08:49.093Z,13.27
2023-03-26T05:11:15.864Z,10.73
2023-03-26T05:13:42.974Z,13.10
2023-03-26T05:16:10.639Z,9.30
2023-03-26T05:18:37.136Z,13.20
2023-03-26T05:21:03.741Z,12.43
2023-03-26T05:23:30.664Z,13.03
2023-03-26T05:25:57.239Z,12.67
2023-03-26T05:28:25.519Z,13.20
2023-03-26T05:30:53.418Z,11.63
2023-03-26T05:33:20.843Z,13.07
2023-03-26T05:35:49.480Z,9.37
2023-03-26T05:38:16.130Z,12.33
2023-03-26T05:40:43.004Z,11.70
2023-03-26T05:43:09.720Z,8.57
2023-03-26T05:45:36.298Z,10.93
2023-03-26T05:48:02.949Z,11.67
2023-03-26T05:50:29.574Z,16.33
2023-03-26T05:52:56.071Z,11.57
2023-03-26T05:55:22.594Z,11.07
2023-03-26T05:57:49.182Z,9.03
2023-03-26T06:00:16.508Z,13.97
2023-03-26T06:02:43.058Z,10.97
2023-03-26T06:05:09.980Z,9.50
2023-03-26T06:07:36.698Z,9.17
2023-03-26T06:10:03.562Z,9.63
2023-03-26T06:12:30.225Z,8.80
2023-03-26T06:14:56.772Z,10.97
2023-03-26T06:17:23.711Z,12.27
2023-03-26T06:19:50.337Z,9.73
2023-03-26T06:22:16.950Z,11.60
2023-03-26T06:24:43.514Z,9.33
2023-03-26T06:27:10.068Z,14.37
2023-03-26T06:29:36.757Z,5.70
2023-03-26T06:32:16.204Z,7.47
2023-03-26T06:34:45.302Z,8.40
2023-03-26T06:37:11.850Z,10.37
2023-03-26T06:39:38.395Z,11.80
2023-03-26T06:42:05.050Z,9.60
2023-03-26T06:44:31.761Z,8.07
2023-03-26T06:46:58.364Z,10.27
2023-03-26T06:49:24.908Z,16.53
2023-03-26T06:51:51.413Z,10.77
2023-03-26T06:54:17.966Z,8.27
2023-03-26T06:56:45.112Z,8.80
2023-03-26T06:59:12.206Z,9.40
2023-03-26T07:01:39.349Z,9.60
2023-03-26T07:04:06.161Z,12.50
2023-03-26T07:06:32.963Z,5.70
2023-03-26T07:08:59.526Z,8.80
2023-03-26T07:11:27.081Z,10.47
2023-03-26T07:13:56.315Z,11.47
2023-03-26T07:16:23.067Z,9.83
2023-03-26T07:18:49.718Z,9.90
2023-03-26T07:21:16.392Z,7.23
2023-03-26T07:23:43.047Z,13.40
2023-03-26T07:26:18.628Z,12.30
2023-03-26T07:29:04.455Z,11.57
2023-03-26T07:31:34.769Z,6.53
2023-03-26T07:34:10.430Z,10.40
2023-03-26T07:36:37.287Z,7.57
2023-03-26T07:39:09.838Z,8.97
2023-03-26T07:41:46.478Z,7.93
2023-03-26T07:44:13.164Z,8.33
2023-03-26T07:46:41.543Z,8.53
2023-03-26T07:49:12.287Z,8.00
2023-03-26T07:51:39.113Z,6.40
2023-03-26T07:54:06.828Z,7.03
2023-03-26T07:56:36.269Z,7.47
2023-03-26T07:59:05.870Z,8.87
2023-03-26T08:01:38.624Z,10.17
2023-03-26T08:04:24.575Z,11.63
2023-03-26T08:06:56.398Z,7.80
2023-03-26T08:09:46.377Z,7.33
2023-03-26T08:12:19.107Z,9.63
2023-03-26T08:15:11.221Z,6.10
2023-03-26T08:17:45.149Z,6.77
2023-03-26T08:20:12.018Z,7.97
2023-03-26T08:22:41.117Z,7.73
2023-03-26T08:25:19.732Z,8.00
2023-03-26T08:27:54.780Z,9.93
2023-03-26T08:30:23.063Z,6.57
2023-03-26T08:33:00.368Z,9.67
2023-03-26T08:35:27.641Z,8.23
2023-03-26T08:37:54.377Z,7.73
2023-03-26T08:40:27.686Z,9.13
2023-03-26T08:43:20.959Z,10.07
2023-03-26T08:46:15.991Z,9.37
2023-03-26T08:48:48.902Z,10.63
2023-03-26T08:51:30.852Z,5.93
2023-03-26T08:54:16.406Z,9.50
2023-03-26T08:57:01.919Z,8.93
2023-03-26T08:59:42.020Z,9.10
2023-03-26T09:02:08.923Z,9.17
2023-03-26T09:04:39.610Z,9.83
2023-03-26T09:07:10.109Z,9.80
2023-03-26T09:09:42.833Z,9.30
2023-03-26T09:12:28.396Z,5.10
2023-03-26T09:15:07.338Z,6.47
2023-03-26T09:17:52.820Z,4.20
2023-03-26T09:20:38.355Z,5.90
2023-03-26T09:23:23.833Z,4.83
2023-03-26T09:25:56.866Z,6.70
2023-03-26T09:28:50.630Z,5.27
2023-03-26T09:31:26.486Z,7.30
2023-03-26T09:34:00.457Z,7.20
2023-03-26T09:36:33.059Z,4.73
2023-03-26T09:39:00.581Z,5.30
2023-03-26T09:41:39.609Z,5.40
2023-03-26T09:44:09.288Z,5.10
2023-03-26T09:46:46.548Z,4.83
2023-03-26T09:49:17.403Z,3.87
2023-03-26T09:51:50.358Z,7.57
2023-03-26T09:54:51.786Z,3.10
2023-03-26T09:57:51.254Z,7.00
2023-03-26T10:00:47.244Z,5.60
2023-03-26T10:03:30.497Z,4.73
2023-03-26T10:06:12.591Z,4.63
2023-03-26T10:08:47.606Z,4.37
2023-03-26T10:11:33.680Z,6.23
2023-03-26T10:14:04.298Z,6.10
2023-03-26T10:16:34.308Z,7.53
2023-03-26T10:19:20.055Z,5.13
2023-03-26T10:22:05.497Z,5.93
2023-03-26T10:24:50.324Z,5.03
2023-03-26T10:27:36.028Z,5.27
2023-03-26T10:30:02.546Z,4.20
2023-03-26T10:32:29.513Z,5.00
2023-03-26T10:35:19.474Z,4.60
2023-03-26T10:37:46.078Z,4.70
2023-03-26T10:40:27.949Z,6.87
2023-03-26T10:43:13.290Z,5.13
2023-03-26T10:45:58.513Z,4.43
2023-03-26T10:48:44.033Z,4.03
2023-03-26T10:51:16.580Z,4.63
2023-03-26T10:53:47.183Z,4.80
2023-03-26T10:56:23.025Z,7.80
2023-03-26T10:58:50.367Z,6.87
2023-03-26T11:01:37.558Z,5.10
2023-03-26T11:04:15.676Z,5.10
2023-03-26T11:06:47.622Z,5.27
2023-03-26T11:09:33.192Z,6.50
2023-03-26T11:12:25.463Z,4.67
2023-03-26T11:15:01.343Z,5.97
2023-03-26T11:17:39.684Z,5.10
2023-03-26T11:20:15.512Z,6.80
2023-03-26T11:23:00.918Z,6.40
2023-03-26T11:25:27.499Z,8.17
2023-03-26T11:28:00.357Z,5.07
2023-03-26T11:30:37.879Z,6.63
2023-03-26T11:33:06.750Z,5.53
2023-03-26T11:35:41.042Z,7.37
2023-03-26T11:38:16.181Z,6.33
2023-03-26T11:40:45.292Z,6.77
2023-03-26T11:43:13.508Z,7.13
2023-03-26T11:45:42.394Z,5.57
2023-03-26T11:48:28.821Z,6.67
2023-03-26T11:50:57.668Z,8.10
2023-03-26T11:53:27.717Z,10.90
2023-03-26T11:55:59.582Z,10.70
2023-03-26T11:58:31.460Z,9.10
2023-03-26T12:00:59.132Z,9.53
2023-03-26T12:03:25.882Z,7.83
2023-03-26T12:05:57.941Z,7.07
2023-03-26T12:08:31.176Z,9.53
2023-03-26T12:11:04.398Z,8.43
2023-03-26T12:13:36.538Z,11.53
2023-03-26T12:16:14.194Z,10.20
2023-03-26T12:18:41.782Z,9.30
2023-03-26T12:21:13.136Z,10.93
2023-03-26T12:23:42.694Z,8.67
2023-03-26T12:26:17.506Z,10.83
2023-03-26T12:28:45.293Z,11.17
2023-03-26T12:31:18.157Z,12.03
2023-03-26T12:33:46.145Z,8.00
2023-03-26T12:36:17.533Z,10.50
2023-03-26T12:38:46.038Z,10.17
2023-03-26T12:43:40.652Z,7.30
2023-03-26T12:44:50.126Z,8.40
2023-03-26T12:47:58.656Z,10.73
2023-03-26T12:50:02.298Z,12.83
2023-03-26T12:52:38.483Z,11.00
2023-03-26T12:55:14.748Z,11.17
2023-03-26T12:58:13.637Z,12.13
2023-03-26T13:00:43.794Z,11.10
2023-03-26T13:03:41.990Z,16.13
2023-03-26T13:06:20.606Z,10.27
2023-03-26T13:09:01.233Z,13.23
2023-03-26T13:11:57.270Z,15.47
2023-03-26T13:14:32.205Z,14.53
2023-03-26T13:17:12.831Z,13.47
2023-03-26T13:19:45.529Z,10.57
2023-03-26T13:22:12.557Z,11.77
2023-03-26T13:24:48.935Z,14.40
2023-03-26T13:27:18.651Z,9.57
2023-03-26T13:29:59.810Z,10.23
2023-03-26T13:32:37.143Z,12.47
2023-03-26T13:35:07.199Z,16.03
2023-03-26T13:37:44.153Z,9.60
2023-03-26T13:40:13.807Z,11.83
2023-03-26T13:42:43.686Z,10.83
2023-03-26T13:45:30.668Z,11.53
2023-03-26T13:47:58.567Z,10.30
2023-03-26T13:50:26.902Z,13.97
2023-03-26T13:52:56.136Z,13.93
2023-03-26T13:55:29.527Z,11.90
2023-03-26T13:58:05.263Z,14.10
2023-03-26T14:00:55.014Z,12.27
2023-03-26T14:03:31.909Z,12.90
2023-03-26T14:06:00.960Z,11.73
2023-03-26T14:08:27.733Z,14.10
2023-03-26T14:11:08.080Z,10.93
2023-03-26T14:13:47.437Z,8.37
2023-03-26T14:16:17.054Z,10.97
2023-03-26T14:18:54.711Z,10.30
2023-03-26T14:21:34.305Z,10.93
2023-03-26T14:24:27.819Z,10.93
2023-03-26T14:27:03.016Z,13.40
2023-03-26T14:29:32.826Z,9.80
2023-03-26T14:32:24.537Z,10.03
2023-03-26T14:35:04.875Z,8.13
2023-03-26T14:37:46.873Z,8.53
2023-03-26T14:40:15.062Z,11.30
2023-03-26T14:42:56.395Z,8.63
2023-03-26T14:45:35.040Z,7.60
2023-03-26T14:48:17.071Z,12.23
2023-03-26T14:50:58.906Z,11.80
2023-03-26T14:53:25.907Z,6.30
2023-03-26T14:56:12.078Z,8.67
2023-03-26T14:58:55.188Z,8.77
2023-03-26T15:01:28.157Z,7.80
2023-03-26T15:04:01.038Z,8.20
2023-03-26T15:06:47.973Z,8.90
2023-03-26T15:09:26.857Z,7.43
2023-03-26T15:12:13.587Z,9.43
2023-03-26T15:14:59.221Z,9.43
2023-03-26T15:17:31.933Z,9.03
2023-03-26T15:20:10.846Z,9.13
2023-03-26T15:22:56.466Z,11.87
2023-03-26T15:25:29.058Z,12.23
2023-03-26T15:28:08.418Z,10.97
2023-03-26T15:30:53.867Z,9.80
2023-03-26T15:33:43.922Z,14.70
2023-03-26T15:36:21.509Z,11.30
2023-03-26T15:38:48.818Z,11.27
2023-03-26T15:41:42.440Z,13.47
2023-03-26T15:44:24.649Z,12.67
2023-03-26T15:46:56.364Z,10.67
2023-03-26T15:49:36.317Z,15.73
2023-03-26T15:52:22.134Z,11.53
2023-03-26T15:55:04.368Z,13.17
2023-03-26T15:57:39.271Z,11.30
2023-03-26T16:00:16.380Z,18.73
2023-03-26T16:02:42.974Z,10.27
2023-03-26T16:05:37.308Z,12.00
2023-03-26T16:08:07.187Z,15.13
2023-03-26T16:10:40.914Z,12.80
2023-03-26T16:13:17.381Z,14.13
2023-03-26T16:15:51.727Z,9.80
2023-03-26T16:18:22.546Z,13.20
2023-03-26T16:20:57.274Z,10.53
2023-03-26T16:23:30.296Z,11.90
2023-03-26T16:25:58.868Z,9.40
2023-03-26T16:28:33.710Z,15.03
2023-03-26T16:31:36.853Z,8.00
2023-03-26T16:34:05.415Z,13.03
2023-03-26T16:36:41.990Z,13.57
2023-03-26T16:39:08.873Z,8.23
2023-03-26T16:41:50.302Z,12.20
2023-03-26T16:44:41.243Z,8.60
2023-03-26T16:47:15.119Z,9.67
2023-03-26T16:49:48.132Z,10.27
2023-03-26T16:52:42.815Z,10.13
2023-03-26T16:55:17.897Z,9.43
2023-03-26T16:57:52.957Z,9.83
2023-03-26T17:00:27.743Z,15.67
2023-03-26T17:03:15.161Z,10.97
2023-03-26T17:05:54.213Z,11.10
2023-03-26T17:08:35.928Z,12.13
2023-03-26T17:11:21.233Z,12.83
2023-03-26T17:14:03.706Z,9.57
2023-03-26T17:16:30.421Z,12.73
2023-03-26T17:18:57.026Z,12.23
2023-03-26T17:21:46.318Z,14.70
2023-03-26T17:24:26.693Z,12.50
2023-03-26T17:27:16.789Z,10.87
2023-03-26T17:30:05.783Z,10.27
2023-03-26T17:32:51.251Z,8.70
2023-03-26T17:35:17.962Z,11.03
2023-03-26T17:37:47.768Z,13.47
2023-03-26T17:40:43.505Z,11.60
2023-03-26T17:43:11.608Z,10.87
2023-03-26T17:45:42.111Z,13.97
2023-03-26T17:48:12.981Z,9.57
2023-03-26T17:50:44.190Z,14.00
2023-03-26T17:53:19.711Z,9.77
2023-03-26T17:55:46.943Z,11.87
2023-03-26T17:58:25.392Z,12.10
2023-03-26T18:01:12.607Z,11.70
2023-03-26T18:03:44.447Z,15.07
2023-03-26T18:06:14.039Z,13.07
2023-03-26T18:08:43.103Z,13.30
2023-03-26T18:11:20.624Z,12.17
2023-03-26T18:13:58.031Z,13.03
2023-03-26T18:16:36.689Z,11.50
2023-03-26T18:19:15.109Z,12.67
2023-03-26T18:21:43.209Z,13.20
2023-03-26T18:24:28.633Z,11.87
2023-03-26T18:27:01.401Z,9.40
2023-03-26T18:29:31.652Z,9.30
2023-03-26T18:32:03.540Z,12.77
2023-03-26T18:34:32.136Z,14.77
2023-03-26T18:37:08.585Z,11.67
2023-03-26T18:39:35.345Z,8.40
2023-03-26T18:42:01.979Z,16.93
2023-03-26T18:44:28.876Z,14.80
2023-03-26T18:46:55.813Z,17.17
2023-03-26T18:49:24.034Z,8.60
2023-03-26T18:51:57.205Z,11.60
2023-03-26T18:54:25.126Z,17.00
2023-03-26T18:56:52.645Z,13.03
2023-03-26T18:59:28.263Z,9.07
2023-03-26T19:01:57.326Z,8.67
2023-03-26T19:04:25.802Z,8.47
2023-03-26T19:06:55.234Z,9.30
2023-03-26T19:09:31.675Z,12.53
2023-03-26T19:12:03.915Z,9.67
2023-03-26T19:14:35.367Z,11.53
2023-03-26T19:17:03.558Z,10.93
2023-03-26T19:19:32.582Z,9.93
2023-03-26T19:21:59.781Z,9.83
2023-03-26T19:24:27.068Z,12.93
2023-03-26T19:26:53.696Z,12.20
2023-03-26T19:29:24.534Z,10.10
2023-03-26T19:31:55.753Z,10.67
2023-03-26T19:34:31.667Z,10.63
2023-03-26T19:37:03.253Z,7.67
2023-03-26T19:39:37.658Z,11.23
2023-03-26T19:42:05.305Z,11.80
2023-03-26T19:44:32.073Z,6.87
2023-03-26T19:47:03.378Z,11.47
2023-03-26T19:49:32.179Z,9.40
2023-03-26T19:52:11.398Z,11.50
2023-03-26T19:54:59.762Z,11.20
2023-03-26T19:57:31.618Z,9.20
2023-03-26T19:59:58.648Z,10.13
2023-03-26T20:02:26.175Z,10.80
2023-03-26T20:04:53.070Z,6.50
2023-03-26T20:07:22.297Z,8.53
2023-03-26T20:10:03.086Z,11.37
2023-03-26T20:12:29.980Z,8.20
2023-03-26T20:14:56.880Z,14.33
2023-03-26T20:17:23.538Z,7.90
2023-03-26T20:19:50.107Z,7.47
2023-03-26T20:22:17.687Z,9.70
2023-03-26T20:24:47.211Z,12.77
2023-03-26T20:27:16.613Z,8.23
2023-03-26T20:29:43.279Z,9.57
2023-03-26T20:32:23.692Z,10.07
2023-03-26T20:34:51.578Z,11.23
2023-03-26T20:37:18.371Z,10.37
2023-03-26T20:39:45.780Z,11.93
2023-03-26T20:42:15.428Z,5.37
2023-03-26T20:44:42.745Z,9.20
2023-03-26T20:47:12.880Z,5.33
2023-03-26T20:49:40.348Z,9.37
2023-03-26T20:52:06.932Z,8.03
2023-03-26T20:54:33.513Z,10.93
2023-03-26T20:57:00.316Z,9.57
2023-03-26T20:59:27.843Z,9.03
2023-03-26T21:01:57.154Z,13.17
2023-03-26T21:04:25.019Z,12.27
2023-03-26T21:06:53.305Z,8.37
2023-03-26T21:09:25.370Z,7.73
2023-03-26T21:11:59.345Z,9.30
2023-03-26T21:14:28.330Z,7.73
2023-03-26T21:16:55.238Z,10.50
2023-03-26T21:19:21.972Z,11.70
2023-03-26T21:21:52.595Z,10.00
2023-03-26T21:24:19.325Z,11.40
2023-03-26T21:26:52.245Z,7.37
2023-03-26T21:29:19.011Z,6.30
2023-03-26T21:31:46.762Z,8.57
2023-03-26T21:34:14.046Z,7.30
2023-03-26T21:36:40.825Z,8.20
2023-03-26T21:39:07.643Z,8.30
2023-03-26T21:42:04.753Z,10.20
2023-03-26T21:44:33.026Z,9.13
2023-03-26T21:46:59.720Z,6.97
2023-03-26T21:49:26.496Z,10.83
2023-03-26T21:51:53.130Z,11.00
2023-03-26T21:54:29.773Z,7.40
2023-03-26T21:57:05.959Z,8.43
2023-03-26T21:59:41.696Z,8.37
2023-03-26T22:02:17.349Z,9.20
2023-03-26T22:04:46.869Z,8.90
2023-03-26T22:07:13.857Z,8.73
2023-03-26T22:09:40.841Z,8.37
2023-03-26T22:12:07.517Z,8.90
2023-03-26T22:14:34.489Z,9.40
2023-03-26T22:17:01.050Z,7.17
2023-03-26T22:19:29.152Z,8.97
2023-03-26T22:21:58.340Z,8.53
2023-03-26T22:24:24.834Z,8.37
2023-03-26T22:26:51.595Z,12.90
2023-03-26T22:29:18.135Z,11.17
2023-03-26T22:31:45.121Z,7.87
2023-03-26T22:34:11.785Z,8.80
2023-03-26T22:36:40.309Z,8.67
2023-03-26T22:39:07.248Z,5.67
2023-03-26T22:41:33.740Z,9.60
2023-03-26T22:44:09.348Z,10.43
2023-03-26T22:46:47.410Z,9.37
2023-03-26T22:49:13.942Z,11.67
2023-03-26T22:51:40.500Z,10.23
2023-03-26T22:54:07.651Z,14.30
2023-03-26T22:56:34.224Z,9.33
2023-03-26T22:59:00.738Z,6.07
2023-03-26T23:01:27.554Z,13.60
2023-03-26T23:03:54.649Z,7.90
2023-03-26T23:06:21.709Z,11.40
2023-03-26T23:08:48.313Z,11.27
2023-03-26T23:11:16.912Z,11.23
2023-03-26T23:13:43.834Z,8.03
2023-03-26T23:16:11.444Z,8.03
2023-03-26T23:18:38.766Z,12.43
2023-03-26T23:21:11.919Z,10.23
2023-03-26T23:23:39.755Z,11.90
2023-03-26T23:26:07.002Z,11.70
2023-03-26T23:28:34.277Z,12.90
2023-03-26T23:31:02.375Z,8.10
2023-03-26T23:33:31.306Z,12.93
2023-03-26T23:35:59.878Z,9.60
2023-03-26T23:38:29.039Z,9.30
2023-03-26T23:41:14.994Z,7.17
2023-03-26T23:43:53.981Z,7.20
2023-03-26T23:46:23.601Z,4.87
2023-03-26T23:48:55.015Z,8.37
2023-03-26T23:51:21.868Z,6.17
2023-03-26T23:53:49.297Z,7.27
2023-03-26T23:56:16.433Z,12.03
2023-03-26T23:58:43.071Z,14.33
